العودة   :: Flying Way :: > ._][_ سـاحة المطـار والطائرات Airport and Aircraft's yard _][_. > السلامة الجوية Flight Safety
تحديث الصفحة [أخبـار] هبوط اضطراري لطائرة E190 تابعة لطيران ماينمار بمدينة ماندالاي ببورما بسبب خلل بالعجلة الامامية للطائرة
الملاحظات

السلامة الجوية Flight Safety   متابعة أخبار حوادث الطيران وتحليل المعلومات التي أدت إليها. راجع فهرس قسم  السلامة الجوية

أدوات الموضوع إبحث في الموضوع
الصورة الرمزية محمد احمد عسيري
Flying Way
قديم 13-05-2019, 01:48 PM   رقم المشاركة : [ 1 ]   
مشاهدة ملفه الشخصي
 
 
 
تم شكره 5,056 مرة في 2,876 مشاركة
محمد احمد عسيري يستحق الثقة والتقديرمحمد احمد عسيري يستحق الثقة والتقديرمحمد احمد عسيري يستحق الثقة والتقديرمحمد احمد عسيري يستحق الثقة والتقديرمحمد احمد عسيري يستحق الثقة والتقديرمحمد احمد عسيري يستحق الثقة والتقديرمحمد احمد عسيري يستحق الثقة والتقديرمحمد احمد عسيري يستحق الثقة والتقديرمحمد احمد عسيري يستحق الثقة والتقديرمحمد احمد عسيري يستحق الثقة والتقديرمحمد احمد عسيري يستحق الثقة والتقدير
معدل تقييم المستوى: 14413
Exclamation هبوط اضطراري لطائرة E190 تابعة لطيران ماينمار بمدينة ماندالاي ببورما بسبب خلل بالعجلة الامامية للطائرة

تضرّر جسم طائرة ركاب تقل 89 راكباً، اليوم الأحد، عندما أصيبت بعطل فني أثناء هبوطها اضطرارياً في مدينة ماندالاي البورمية، فيما لم يُصب أي من الركاب بأذى.

وأظهر مقطع فيديو متداول، لحظة هبوط الطائرة "ميانمار UB-103" وهي من طراز "امبراير 190"، حيث نجح قائدها في الهبوط بها بسلام بعد حدوث خلل في (العجلات الأمامية).

وأكّد نائب مدير إدارة الطيران المدني في بورما في تصريحات صحفية لوكالة الأنباء الفرنسية، أن الحادث نتيجة "عيب فني" في المعدات وأن برج المراقبة طلب من الطيار التحقق من هبوط العجلات الأمامية.

وفتحت الخطوط الجوية في بورما، تحقيقاً في الحادث الجوي الثاني خلال أسبوع واحد في البلاد، ولكن في هذا الحادث لم تكن هناك أي إصابات بين الركاب وأفراد الطاقم.






https://akhbaar24.argaam.com/article...85%D9%8A%D8%A9

الأعضاء الذين قالوا شكراً لـ محمد احمد عسيري على المشاركة المفيدة:
قديم 13-05-2019, 01:50 PM   رقم المشاركة : [ 2 ]   
محمد احمد عسيري
Flying Way
الصورة الرمزية محمد احمد عسيري
Exclamation رد: هبوط اضطراري لطائرة E190 تابعة لطيران ماينمار بمدينة ماندالاي ببورما بسبب خلل بالعجلة الامامية للطائرة

Accident: Myanmar E190 at Mandalay on May 12th 2019, nose gear failed to extend

A Myanmar National Airlines Embraer ERJ-190, registration XY-AGQ performing flight UB-103 from Yangon to Mandalay (Myanmar) with 82 passengers and 7 crew, was on approach to Mandalay's runway 17 at about 09:00L (02:30Z) when the crew could not extend the nose gear and went around. The crew worked the related checklists, attempted an alternate gear extension, which also could not extend the nose gear. A low approach confirmed the nose gear was still not extended. The crew prepared for a nose gear up landing and landed on Mandalay's runway 17, keeping the nose up as long as practicable, bringing the aircraft to a halt on the runway on both main gear struts and the nose of the aircraft. Smoke entered the cabin after the nose touched down. The aircraft was evacuated via slides. There were no injuries, the aircraft sustained susbtantial damage.

The airline reported the aircraft was on its way from Yangon to Mandalay when on approach to Mandalay the crew could not extend the nose gear. The aircraft overflew the runway twice to have tower check the landing gear. The aircraft entered a hold to burn off fuel.

Metars:
VYMD 120430Z 19010G20KT 6000 FEW020 38/24 Q1006 NOSIG=
VYMD 120330Z 18010G25KT 6000 HZ FEW025 37/25 Q1007 NOSIG=
VYMD 120230Z 18010G25KT 6000 HZ FEW025 35/24 Q1007 NOSIG=
VYMD 120130Z 18010G20KT 6000 HZ FEW025 34/24 Q1007 NOSIG=
VYMD 120030Z 17010G20KT 6000 HZ FEW025 32/25 Q1006 NOSIG=
VYMD 112330Z 18009G18KT 6000 HZ FEW025 31/24 Q1005 NOSIG=



http://avherald.com/h?article=4c7d9659&opt=0

______________________________

Narrative:
Myanmar National Airlines flight UB103, an Embraer ERJ-190LR, made a forced landing at Mandalay International Airport with the nose landing gear retracted.
The flight had departed Yangon-Mingaladon Airport on a domestic service to Mandalay International Airport. The flight crew carried out an RNAV approach to runway 17 and configured the aircraft for landing. However, the nose landing gear failed to deploy. The emergency gear extension procedure was followed but the nosegear still would not deploy.
Two low passes were then performed to allow personnel in the control tower to observe the position of the nose landing gear, which was fully retracted.
After burning fuel the flight crew performed a forced landing. There were no injuries to the occupants.

https://aviation-safety.net/wikibase/225024
  إقتباس
إضافة رد

«     تحطم طائرة صغيرة بمقاطعة ويلز البريطانية على طريق مخصص للسيارات ونجاة ركابها   |    تصادم طائرتين بسماء جنوب شرق ولاية الاسكا ومقتل 4 بالحادث واصابة 10 اشخاص وفقد شخصين    »


الذين يشاهدون محتوى الموضوع الآن : 1 ( الأعضاء 0 والزوار 1)
 
أدوات الموضوع إبحث في الموضوع
إبحث في الموضوع:

البحث المتقدم

الانتقال السريع

الساعة الآن 09:19 PM.
Powered by vBulletin® Version 3.8.9
Copyright ©2000 - 2019, vBulletin Solutions, Inc.
حق العلم والمعرفة يعادل حق الحياة للأنسان - لذا نحن كمسؤلين في الشبكة متنازلون عن جميع الحقوق
All trademarks and copyrights held by respective owners. Member comments are owned by the poster.
خط الطيران 2004-2019